createdAt,value
2022-12-11T00:00:55.747Z,55.59
2022-12-11T00:04:15.340Z,55.47
2022-12-11T00:07:17.502Z,55.69
2022-12-11T00:10:20.763Z,55.52
2022-12-11T00:13:22.872Z,55.62
2022-12-11T00:16:27.254Z,55.44
2022-12-11T00:19:30.000Z,55.29
2022-12-11T00:22:33.094Z,55.34
2022-12-11T00:25:35.444Z,55.21
2022-12-11T00:28:38.087Z,55.17
2022-12-11T00:31:43.381Z,55.15
2022-12-11T00:34:46.403Z,55.14
2022-12-11T00:37:48.512Z,55.25
2022-12-11T00:40:51.390Z,55.25
2022-12-11T00:43:53.404Z,55.37
2022-12-11T00:46:55.969Z,55.14
2022-12-11T00:49:58.751Z,55.09
2022-12-11T00:53:04.406Z,55.04
2022-12-11T00:56:16.176Z,55.08
2022-12-11T00:59:18.697Z,55.11
2022-12-11T01:02:20.629Z,55.14
2022-12-11T01:05:23.363Z,55.22
2022-12-11T01:08:25.602Z,55.21
2022-12-11T01:11:28.402Z,55.19
2022-12-11T01:14:30.469Z,55.22
2022-12-11T01:17:32.916Z,55.19
2022-12-11T01:20:36.125Z,55.20
2022-12-11T01:23:40.284Z,55.21
2022-12-11T01:26:42.322Z,55.25
2022-12-11T01:29:44.538Z,55.25
2022-12-11T01:32:47.013Z,55.37
2022-12-11T01:35:49.721Z,55.28
2022-12-11T01:38:54.209Z,55.38
2022-12-11T01:42:01.717Z,55.51
2022-12-11T01:45:16.363Z,55.48
2022-12-11T01:48:24.391Z,55.47
2022-12-11T01:51:27.933Z,55.46
2022-12-11T01:54:30.887Z,55.46
2022-12-11T01:57:33.790Z,55.31
2022-12-11T02:00:36.860Z,55.39
2022-12-11T02:03:38.888Z,55.53
2022-12-11T02:06:44.080Z,55.67
2022-12-11T02:09:48.712Z,55.71
2022-12-11T02:13:15.233Z,55.71
2022-12-11T02:16:48.281Z,55.73
2022-12-11T02:20:12.486Z,55.82
2022-12-11T02:23:44.540Z,55.86
2022-12-11T02:27:11.179Z,55.79
2022-12-11T02:30:15.821Z,55.90
2022-12-11T02:33:23.808Z,55.89
2022-12-11T02:36:28.693Z,55.99
2022-12-11T02:39:34.905Z,56.01
2022-12-11T02:42:40.704Z,56.05
2022-12-11T02:45:45.841Z,56.06
2022-12-11T02:48:51.479Z,56.10
2022-12-11T02:51:56.933Z,56.15
2022-12-11T02:55:01.503Z,56.18
2022-12-11T02:58:18.897Z,56.22
2022-12-11T03:01:21.992Z,56.28
2022-12-11T03:04:25.179Z,56.28
2022-12-11T03:07:31.831Z,56.29
2022-12-11T03:10:34.733Z,55.91
2022-12-11T03:13:36.989Z,56.14
2022-12-11T03:17:19.634Z,56.05
2022-12-11T03:20:34.157Z,55.91
2022-12-11T03:23:49.744Z,55.98
2022-12-11T03:27:01.423Z,56.09
2022-12-11T03:30:13.270Z,56.22
2022-12-11T03:33:23.762Z,56.06
2022-12-11T03:36:32.947Z,56.22
2022-12-11T03:39:44.838Z,56.33
2022-12-11T03:42:52.084Z,56.28
2022-12-11T03:45:55.441Z,56.44
2022-12-11T03:49:03.948Z,56.37
2022-12-11T03:52:09.167Z,56.39
2022-12-11T03:55:15.861Z,56.39
2022-12-11T03:58:18.244Z,56.49
2022-12-11T04:01:20.633Z,56.55
2022-12-11T04:04:23.025Z,56.70
2022-12-11T04:07:25.587Z,56.71
2022-12-11T04:10:29.381Z,56.52
2022-12-11T04:13:32.286Z,56.30
2022-12-11T04:16:34.544Z,56.17
2022-12-11T04:19:55.501Z,56.18
2022-12-11T04:23:16.252Z,56.23
2022-12-11T04:26:20.924Z,56.40
2022-12-11T04:29:23.070Z,56.09
2022-12-11T04:32:25.780Z,55.90
2022-12-11T04:35:28.328Z,55.82
2022-12-11T04:38:30.831Z,56.08
2022-12-11T04:41:33.501Z,56.28
2022-12-11T04:44:35.811Z,56.22
2022-12-11T04:47:40.262Z,56.35
2022-12-11T04:50:42.933Z,55.89
2022-12-11T04:53:45.622Z,55.77
2022-12-11T04:56:48.216Z,55.52
2022-12-11T04:59:50.392Z,55.52
2022-12-11T05:02:52.968Z,55.56
2022-12-11T05:05:55.530Z,55.72
2022-12-11T05:08:58.067Z,55.89
2022-12-11T05:12:00.205Z,56.17
2022-12-11T05:15:02.992Z,56.15
2022-12-11T05:18:05.061Z,56.39
2022-12-11T05:21:10.093Z,56.39
2022-12-11T05:24:12.003Z,56.51
2022-12-11T05:27:14.409Z,56.44
2022-12-11T05:30:16.860Z,56.50
2022-12-11T05:33:19.301Z,56.60
2022-12-11T05:36:22.988Z,56.51
2022-12-11T05:39:25.605Z,56.57
2022-12-11T05:42:29.211Z,56.57
2022-12-11T05:45:32.668Z,56.60
2022-12-11T05:48:36.822Z,56.63
2022-12-11T05:51:39.880Z,56.62
2022-12-11T05:54:41.725Z,56.73
2022-12-11T05:57:44.873Z,56.70
2022-12-11T06:00:48.976Z,56.68
2022-12-11T06:03:53.656Z,56.75
2022-12-11T06:06:55.595Z,56.74
2022-12-11T06:09:57.914Z,56.70
2022-12-11T06:13:00.238Z,56.76
2022-12-11T06:16:06.040Z,56.85
2022-12-11T06:19:15.013Z,56.91
2022-12-11T06:22:17.347Z,56.85
2022-12-11T06:25:20.427Z,56.81
2022-12-11T06:28:22.715Z,56.80
2022-12-11T06:31:25.780Z,56.53
2022-12-11T06:34:28.912Z,56.45
2022-12-11T06:37:30.881Z,56.70
2022-12-11T06:40:33.149Z,56.80
2022-12-11T06:43:38.439Z,56.83
2022-12-11T06:46:41.971Z,56.74
2022-12-11T06:49:44.476Z,56.61
2022-12-11T06:52:46.738Z,56.65
2022-12-11T06:55:49.045Z,56.70
2022-12-11T06:58:52.269Z,56.70
2022-12-11T07:01:54.313Z,56.69
2022-12-11T07:04:57.003Z,56.72
2022-12-11T07:07:59.158Z,56.65
2022-12-11T07:11:07.385Z,56.82
2022-12-11T07:14:10.457Z,56.81
2022-12-11T07:17:13.434Z,56.74
2022-12-11T07:20:15.631Z,56.79
2022-12-11T07:23:18.325Z,56.87
2022-12-11T07:26:22.295Z,57.04
2022-12-11T07:29:24.876Z,56.98
2022-12-11T07:32:27.231Z,57.06
2022-12-11T07:35:29.962Z,56.90
2022-12-11T07:38:33.001Z,56.92
2022-12-11T07:41:36.348Z,57.01
2022-12-11T07:44:41.929Z,56.99
2022-12-11T07:47:44.578Z,56.96
2022-12-11T07:50:49.532Z,56.89
2022-12-11T07:53:53.814Z,56.84
2022-12-11T07:56:56.391Z,56.87
2022-12-11T08:00:00.321Z,56.79
2022-12-11T08:03:03.341Z,56.89
2022-12-11T08:06:06.916Z,56.85
2022-12-11T08:09:18.941Z,56.91
2022-12-11T08:12:23.097Z,57.02
2022-12-11T08:15:25.373Z,57.02
2022-12-11T08:18:28.073Z,56.87
2022-12-11T08:21:30.745Z,56.78
2022-12-11T08:24:33.424Z,56.60
2022-12-11T08:27:35.336Z,56.72
2022-12-11T08:30:41.327Z,56.59
2022-12-11T08:33:44.977Z,56.55
2022-12-11T08:36:47.713Z,56.57
2022-12-11T08:39:50.475Z,56.55
2022-12-11T08:42:53.272Z,56.64
2022-12-11T08:45:55.775Z,56.85
2022-12-11T08:48:59.613Z,57.01
2022-12-11T08:52:06.576Z,56.91
2022-12-11T08:55:10.532Z,56.60
2022-12-11T08:58:13.815Z,56.88
2022-12-11T09:01:21.804Z,56.78
2022-12-11T09:04:27.273Z,57.55
2022-12-11T09:07:30.230Z,56.58
2022-12-11T09:10:32.810Z,56.81
2022-12-11T09:13:38.459Z,57.33
2022-12-11T09:16:41.285Z,57.15
2022-12-11T09:19:44.333Z,57.20
2022-12-11T09:22:46.844Z,57.10
2022-12-11T09:25:49.624Z,57.06
2022-12-11T09:28:53.707Z,56.99
2022-12-11T09:31:56.267Z,56.82
2022-12-11T09:34:58.824Z,57.26
2022-12-11T09:38:02.756Z,57.15
2022-12-11T09:41:23.548Z,56.95
2022-12-11T09:44:47.225Z,56.87
2022-12-11T09:47:54.734Z,56.82
2022-12-11T09:50:58.044Z,56.78
2022-12-11T09:54:03.619Z,56.78
2022-12-11T09:57:35.031Z,56.78
2022-12-11T10:00:46.813Z,56.69
2022-12-11T10:04:11.055Z,56.59
2022-12-11T10:07:46.145Z,56.44
2022-12-11T10:10:49.095Z,56.15
2022-12-11T10:14:12.210Z,56.17
2022-12-11T10:17:35.561Z,56.13
2022-12-11T10:20:41.910Z,54.71
2022-12-11T10:23:57.146Z,56.42
2022-12-11T10:27:13.070Z,56.45
2022-12-11T10:30:24.469Z,56.13
2022-12-11T10:33:39.368Z,56.26
2022-12-11T10:36:43.594Z,56.22
2022-12-11T10:39:46.065Z,56.11
2022-12-11T10:42:55.297Z,56.70
2022-12-11T10:45:58.358Z,56.56
2022-12-11T10:49:02.148Z,56.47
2022-12-11T10:52:18.057Z,57.29
2022-12-11T10:55:28.708Z,57.01
2022-12-11T10:58:34.558Z,56.77
2022-12-11T11:01:37.706Z,56.70
2022-12-11T11:04:45.434Z,56.55
2022-12-11T11:07:50.860Z,56.62
2022-12-11T11:11:01.216Z,56.59
2022-12-11T11:14:08.488Z,56.26
2022-12-11T11:17:16.811Z,56.36
2022-12-11T11:20:26.251Z,56.20
2022-12-11T11:23:30.274Z,56.21
2022-12-11T11:27:11.194Z,55.56
2022-12-11T11:30:05.101Z,55.42
2022-12-11T11:33:19.061Z,55.52
2022-12-11T11:36:25.859Z,55.53
2022-12-11T11:39:38.208Z,55.26
2022-12-11T11:43:06.449Z,55.15
2022-12-11T11:46:16.913Z,54.85
2022-12-11T11:49:38.426Z,54.74
2022-12-11T11:53:02.386Z,54.94
2022-12-11T11:56:35.576Z,54.89
2022-12-11T11:59:50.231Z,54.78
2022-12-11T12:02:57.833Z,54.55
2022-12-11T12:06:16.611Z,54.50
2022-12-11T12:09:30.993Z,54.71
2022-12-11T12:12:47.760Z,54.80
2022-12-11T12:15:57.111Z,54.85
2022-12-11T12:19:09.150Z,54.64
2022-12-11T12:22:49.263Z,54.47
2022-12-11T12:25:58.719Z,54.37
2022-12-11T12:29:15.675Z,54.52
2022-12-11T12:32:29.050Z,54.75
2022-12-11T12:35:41.633Z,54.70
2022-12-11T12:38:58.084Z,54.87
2022-12-11T12:42:35.609Z,54.93
2022-12-11T12:45:54.381Z,54.88
2022-12-11T12:49:00.385Z,54.66
2022-12-11T12:52:05.539Z,54.50
2022-12-11T12:55:23.364Z,54.17
2022-12-11T12:58:46.579Z,53.99
2022-12-11T13:01:57.557Z,53.90
2022-12-11T13:05:21.615Z,54.19
2022-12-11T13:08:29.867Z,54.06
2022-12-11T13:11:35.418Z,53.90
2022-12-11T13:14:38.106Z,53.84
2022-12-11T13:17:41.022Z,53.82
2022-12-11T13:20:48.416Z,53.92
2022-12-11T13:23:51.971Z,54.03
2022-12-11T13:26:55.657Z,53.98
2022-12-11T13:30:21.764Z,53.78
2022-12-11T13:33:24.408Z,53.82
2022-12-11T13:36:33.665Z,54.03
2022-12-11T13:39:39.764Z,54.00
2022-12-11T13:43:02.651Z,53.81
2022-12-11T13:46:12.694Z,53.87
2022-12-11T13:49:25.301Z,53.53
2022-12-11T13:52:29.263Z,53.82
2022-12-11T13:55:35.506Z,53.75
2022-12-11T13:58:39.754Z,53.48
2022-12-11T14:01:44.544Z,53.34
2022-12-11T14:04:50.944Z,53.34
2022-12-11T14:07:56.998Z,53.39
2022-12-11T14:10:59.412Z,53.44
2022-12-11T14:14:04.931Z,53.58
2022-12-11T14:17:07.488Z,53.65
2022-12-11T14:20:19.686Z,54.14
2022-12-11T14:23:27.928Z,54.03
2022-12-11T14:26:35.841Z,54.04
2022-12-11T14:29:38.396Z,53.96
2022-12-11T14:32:45.514Z,53.93
2022-12-11T14:35:49.324Z,53.65
2022-12-11T14:38:57.656Z,53.57
2022-12-11T14:42:01.739Z,53.55
2022-12-11T14:45:37.876Z,54.06
2022-12-11T14:48:48.435Z,54.27
2022-12-11T14:51:52.944Z,54.15
2022-12-11T14:55:00.469Z,54.16
2022-12-11T14:58:07.796Z,54.03
2022-12-11T15:01:25.356Z,54.09
2022-12-11T15:04:32.089Z,54.02
2022-12-11T15:07:34.705Z,54.12
2022-12-11T15:10:40.092Z,53.99
2022-12-11T15:14:14.129Z,53.79
2022-12-11T15:17:18.776Z,53.53
2022-12-11T15:20:31.938Z,52.92
2022-12-11T15:23:50.363Z,53.30
2022-12-11T15:26:55.712Z,53.21
2022-12-11T15:29:58.599Z,53.07
2022-12-11T15:33:13.282Z,53.02
2022-12-11T15:36:26.290Z,53.03
2022-12-11T15:39:28.292Z,52.96
2022-12-11T15:42:42.078Z,52.83
2022-12-11T15:45:44.834Z,52.49
2022-12-11T15:48:49.429Z,52.53
2022-12-11T15:51:52.923Z,52.43
2022-12-11T15:54:55.610Z,52.23
2022-12-11T15:58:01.332Z,52.04
2022-12-11T16:01:04.354Z,51.98
2022-12-11T16:04:08.702Z,52.24
2022-12-11T16:07:21.655Z,52.51
2022-12-11T16:10:24.435Z,52.32
2022-12-11T16:13:27.120Z,52.11
2022-12-11T16:16:29.297Z,52.40
2022-12-11T16:19:31.809Z,52.34
2022-12-11T16:22:34.061Z,52.18
2022-12-11T16:25:40.015Z,52.27
2022-12-11T16:28:43.370Z,52.27
2022-12-11T16:31:46.321Z,52.25
2022-12-11T16:34:49.064Z,52.35
2022-12-11T16:37:53.528Z,52.35
2022-12-11T16:41:02.396Z,52.52
2022-12-11T16:44:05.208Z,52.45
2022-12-11T16:47:07.358Z,52.74
2022-12-11T16:50:12.870Z,53.58
2022-12-11T16:53:17.999Z,54.35
2022-12-11T16:56:20.808Z,54.58
2022-12-11T16:59:24.067Z,54.92
2022-12-11T17:02:28.249Z,55.13
2022-12-11T17:05:30.602Z,54.92
2022-12-11T17:08:33.632Z,54.03
2022-12-11T17:11:35.795Z,53.68
2022-12-11T17:14:38.240Z,53.57
2022-12-11T17:17:43.485Z,53.61
2022-12-11T17:20:45.848Z,53.57
2022-12-11T17:23:48.515Z,53.64
2022-12-11T17:26:51.168Z,53.73
2022-12-11T17:29:53.902Z,53.78
2022-12-11T17:32:56.382Z,53.87
2022-12-11T17:36:02.962Z,53.97
2022-12-11T17:39:07.690Z,54.11
2022-12-11T17:42:10.707Z,54.30
2022-12-11T17:45:13.356Z,54.29
2022-12-11T17:48:17.360Z,54.25
2022-12-11T17:51:24.879Z,54.34
2022-12-11T17:54:27.492Z,54.35
2022-12-11T17:57:31.286Z,54.37
2022-12-11T18:00:33.607Z,54.57
2022-12-11T18:03:37.216Z,54.65
2022-12-11T18:06:40.988Z,54.66
2022-12-11T18:09:44.043Z,54.50
2022-12-11T18:12:46.735Z,54.48
2022-12-11T18:16:04.777Z,54.65
2022-12-11T18:19:09.588Z,54.83
2022-12-11T18:22:23.476Z,55.02
2022-12-11T18:28:53.902Z,54.74
2022-12-11T18:32:00.131Z,54.86
2022-12-11T18:35:05.722Z,55.02
2022-12-11T18:38:09.013Z,55.13
2022-12-11T18:41:14.039Z,55.35
2022-12-11T18:44:23.252Z,55.48
2022-12-11T18:47:26.817Z,55.54
2022-12-11T18:50:29.404Z,55.60
2022-12-11T18:53:35.457Z,55.62
2022-12-11T18:56:39.334Z,55.57
2022-12-11T18:59:43.236Z,55.68
2022-12-11T19:02:46.881Z,55.71
2022-12-11T19:05:52.428Z,55.76
2022-12-11T19:08:59.518Z,55.68
2022-12-11T19:12:03.051Z,55.67
2022-12-11T19:15:06.127Z,55.46
2022-12-11T19:18:09.839Z,55.61
2022-12-11T19:21:13.989Z,55.78
2022-12-11T19:24:18.090Z,55.86
2022-12-11T19:27:20.337Z,55.88
2022-12-11T19:30:25.625Z,55.77
2022-12-11T19:33:29.813Z,55.85
2022-12-11T19:36:35.214Z,55.90
2022-12-11T19:39:39.919Z,55.80
2022-12-11T19:42:43.997Z,55.87
2022-12-11T19:45:48.219Z,55.90
2022-12-11T19:48:54.805Z,55.94
2022-12-11T19:51:57.799Z,55.94
2022-12-11T19:55:06.033Z,56.03
2022-12-11T19:58:09.855Z,56.17
2022-12-11T20:01:28.943Z,56.20
2022-12-11T20:04:31.533Z,56.30
2022-12-11T20:07:34.250Z,56.42
2022-12-11T20:10:37.618Z,56.53
2022-12-11T20:13:42.185Z,56.56
2022-12-11T20:17:10.118Z,56.43
2022-12-11T20:20:11.862Z,56.47
2022-12-11T20:23:14.659Z,56.58
2022-12-11T20:26:22.487Z,56.53
2022-12-11T20:29:26.277Z,56.61
2022-12-11T20:32:29.462Z,57.14
2022-12-11T20:35:31.868Z,57.52
2022-12-11T20:38:36.056Z,57.34
2022-12-11T20:41:38.609Z,57.24
2022-12-11T20:44:48.640Z,57.12
2022-12-11T20:47:51.402Z,56.81
2022-12-11T20:51:00.471Z,56.70
2022-12-11T20:54:04.464Z,56.64
2022-12-11T20:57:08.257Z,56.46
2022-12-11T21:00:11.965Z,56.64
2022-12-11T21:03:15.664Z,56.64
2022-12-11T21:06:30.399Z,56.83
2022-12-11T21:09:33.500Z,56.87
2022-12-11T21:12:35.742Z,56.86
2022-12-11T21:15:40.571Z,56.97
2022-12-11T21:18:44.673Z,57.07
2022-12-11T21:21:48.240Z,57.15
2022-12-11T21:24:50.711Z,57.22
2022-12-11T21:27:53.712Z,57.86
2022-12-11T21:31:01.476Z,57.22
2022-12-11T21:34:04.248Z,57.19
2022-12-11T21:37:06.581Z,57.24
2022-12-11T21:40:10.432Z,57.23
2022-12-11T21:43:12.849Z,57.33
2022-12-11T21:46:17.733Z,57.95
2022-12-11T21:49:20.765Z,57.94
2022-12-11T21:52:23.963Z,57.64
2022-12-11T21:55:27.888Z,57.72
2022-12-11T21:58:30.989Z,57.70
2022-12-11T22:01:41.540Z,57.57
2022-12-11T22:04:43.884Z,57.51
2022-12-11T22:07:46.093Z,57.42
2022-12-11T22:10:49.447Z,57.21
2022-12-11T22:13:53.196Z,57.06
2022-12-11T22:16:56.961Z,56.95
2022-12-11T22:19:59.685Z,57.08
2022-12-11T22:23:02.439Z,57.04
2022-12-11T22:26:05.017Z,56.96
2022-12-11T22:29:09.008Z,56.82
2022-12-11T22:32:11.323Z,56.98
2022-12-11T22:35:14.343Z,57.14
2022-12-11T22:38:17.944Z,57.08
2022-12-11T22:41:32.946Z,56.99
2022-12-11T22:44:36.262Z,56.97
2022-12-11T22:47:40.626Z,57.04
2022-12-11T22:50:43.978Z,57.06
2022-12-11T22:53:46.629Z,57.09
2022-12-11T22:56:48.904Z,57.11
2022-12-11T22:59:51.369Z,57.22
2022-12-11T23:02:53.702Z,57.11
2022-12-11T23:06:00.756Z,57.06
2022-12-11T23:09:06.889Z,56.90
2022-12-11T23:12:09.657Z,56.91
2022-12-11T23:15:12.690Z,56.61
2022-12-11T23:18:15.643Z,56.63
2022-12-11T23:21:20.568Z,56.46
2022-12-11T23:24:24.513Z,56.44
2022-12-11T23:27:26.595Z,56.54
2022-12-11T23:30:29.163Z,56.39
2022-12-11T23:33:32.326Z,56.32
2022-12-11T23:36:35.093Z,56.24
2022-12-11T23:39:37.632Z,55.88
2022-12-11T23:42:41.024Z,55.86
2022-12-11T23:45:45.068Z,55.85
2022-12-11T23:48:48.415Z,55.99
2022-12-11T23:51:50.598Z,55.99
2022-12-11T23:54:53.235Z,55.89
2022-12-11T23:57:55.498Z,55.57
